sensor_id;sensor_type;location;lat;lon;timestamp;pressure;altitude;pressure_sealevel;temperature;humidity
81299;BME280;70766;53.170;18.160;2023-11-21T00:00:08;100632.80;;;0.16;100.00
81299;BME280;70766;53.170;18.160;2023-11-21T00:03:00;100633.48;;;0.14;100.00
81299;BME280;70766;53.170;18.160;2023-11-21T00:05:28;100640.23;;;0.15;100.00
81299;BME280;70766;53.170;18.160;2023-11-21T00:07:57;100644.47;;;0.13;100.00
81299;BME280;70766;53.170;18.160;2023-11-21T00:10:25;100649.94;;;0.12;100.00
81299;BME280;70766;53.170;18.160;2023-11-21T00:12:53;100648.75;;;0.11;100.00
81299;BME280;70766;53.170;18.160;2023-11-21T00:15:23;100654.42;;;0.12;100.00
81299;BME280;70766;53.170;18.160;2023-11-21T00:17:51;100658.79;;;0.06;100.00
81299;BME280;70766;53.170;18.160;2023-11-21T00:20:20;100663.60;;;0.05;100.00
81299;BME280;70766;53.170;18.160;2023-11-21T00:22:48;100664.28;;;0.03;100.00
81299;BME280;70766;53.170;18.160;2023-11-21T00:25:17;100661.39;;;0.04;100.00
81299;BME280;70766;53.170;18.160;2023-11-21T00:27:45;100662.55;;;0.03;100.00
81299;BME280;70766;53.170;18.160;2023-11-21T00:30:14;100666.36;;;0.01;100.00
81299;BME280;70766;53.170;18.160;2023-11-21T00:32:42;100668.42;;;-0.01;100.00
81299;BME280;70766;53.170;18.160;2023-11-21T00:35:11;100674.05;;;-0.04;100.00
81299;BME280;70766;53.170;18.160;2023-11-21T00:37:39;100673.06;;;-0.06;100.00
81299;BME280;70766;53.170;18.160;2023-11-21T00:40:08;100673.10;;;-0.03;100.00
81299;BME280;70766;53.170;18.160;2023-11-21T00:42:37;100676.33;;;-0.04;100.00
81299;BME280;70766;53.170;18.160;2023-11-21T00:45:06;100679.20;;;-0.06;100.00
81299;BME280;70766;53.170;18.160;2023-11-21T00:47:34;100681.93;;;-0.07;100.00
81299;BME280;70766;53.170;18.160;2023-11-21T00:50:03;100686.05;;;-0.13;100.00
81299;BME280;70766;53.170;18.160;2023-11-21T00:52:34;100694.48;;;-0.14;100.00
81299;BME280;70766;53.170;18.160;2023-11-21T00:55:05;100691.81;;;-0.16;100.00
81299;BME280;70766;53.170;18.160;2023-11-21T00:57:36;100696.16;;;-0.15;100.00
81299;BME280;70766;53.170;18.160;2023-11-21T01:00:07;100695.33;;;-0.16;100.00
81299;BME280;70766;53.170;18.160;2023-11-21T01:02:41;100694.89;;;-0.15;100.00
81299;BME280;70766;53.170;18.160;2023-11-21T01:05:11;100693.55;;;-0.16;100.00
81299;BME280;70766;53.170;18.160;2023-11-21T01:07:40;100693.37;;;-0.14;100.00
81299;BME280;70766;53.170;18.160;2023-11-21T01:10:09;100701.30;;;-0.11;100.00
81299;BME280;70766;53.170;18.160;2023-11-21T01:12:38;100697.83;;;-0.13;100.00
81299;BME280;70766;53.170;18.160;2023-11-21T01:15:06;100702.41;;;-0.13;100.00
81299;BME280;70766;53.170;18.160;2023-11-21T01:17:35;100706.66;;;-0.13;100.00
81299;BME280;70766;53.170;18.160;2023-11-21T01:20:04;100712.02;;;-0.12;100.00
81299;BME280;70766;53.170;18.160;2023-11-21T01:22:41;100712.89;;;-0.12;100.00
81299;BME280;70766;53.170;18.160;2023-11-21T01:25:09;100711.94;;;-0.13;100.00
81299;BME280;70766;53.170;18.160;2023-11-21T01:27:38;100720.31;;;-0.19;100.00
81299;BME280;70766;53.170;18.160;2023-11-21T01:30:07;100723.29;;;-0.19;100.00
81299;BME280;70766;53.170;18.160;2023-11-21T01:32:39;100727.90;;;-0.18;100.00
81299;BME280;70766;53.170;18.160;2023-11-21T01:35:10;100721.70;;;-0.23;100.00
81299;BME280;70766;53.170;18.160;2023-11-21T01:37:38;100729.09;;;-0.28;100.00
81299;BME280;70766;53.170;18.160;2023-11-21T01:40:07;100729.45;;;-0.28;100.00
81299;BME280;70766;53.170;18.160;2023-11-21T01:42:39;100730.13;;;-0.26;100.00
81299;BME280;70766;53.170;18.160;2023-11-21T01:45:08;100728.46;;;-0.32;100.00
81299;BME280;70766;53.170;18.160;2023-11-21T01:47:37;100729.59;;;-0.34;100.00
81299;BME280;70766;53.170;18.160;2023-11-21T01:50:07;100736.10;;;-0.36;100.00
81299;BME280;70766;53.170;18.160;2023-11-21T01:52:35;100741.89;;;-0.37;100.00
81299;BME280;70766;53.170;18.160;2023-11-21T01:55:05;100742.74;;;-0.37;100.00
81299;BME280;70766;53.170;18.160;2023-11-21T01:57:35;100743.06;;;-0.40;100.00
81299;BME280;70766;53.170;18.160;2023-11-21T02:00:06;100746.48;;;-0.41;100.00
81299;BME280;70766;53.170;18.160;2023-11-21T02:02:46;100739.73;;;-0.40;100.00
81299;BME280;70766;53.170;18.160;2023-11-21T02:05:16;100737.02;;;-0.46;100.00
81299;BME280;70766;53.170;18.160;2023-11-21T02:07:49;100735.46;;;-0.43;100.00
81299;BME280;70766;53.170;18.160;2023-11-21T02:10:18;100737.86;;;-0.46;100.00
81299;BME280;70766;53.170;18.160;2023-11-21T02:12:52;100739.36;;;-0.45;100.00
81299;BME280;70766;53.170;18.160;2023-11-21T02:15:21;100742.14;;;-0.45;100.00
81299;BME280;70766;53.170;18.160;2023-11-21T02:17:51;100744.53;;;-0.50;100.00
81299;BME280;70766;53.170;18.160;2023-11-21T02:20:21;100746.02;;;-0.54;100.00
81299;BME280;70766;53.170;18.160;2023-11-21T02:22:55;100749.52;;;-0.52;100.00
81299;BME280;70766;53.170;18.160;2023-11-21T02:25:32;100750.80;;;-0.49;100.00
81299;BME280;70766;53.170;18.160;2023-11-21T02:28:02;100751.45;;;-0.47;100.00
81299;BME280;70766;53.170;18.160;2023-11-21T02:30:31;100752.44;;;-0.56;100.00
81299;BME280;70766;53.170;18.160;2023-11-21T02:33:02;100750.83;;;-0.54;100.00
81299;BME280;70766;53.170;18.160;2023-11-21T02:35:31;100754.08;;;-0.57;100.00
81299;BME280;70766;53.170;18.160;2023-11-21T02:38:00;100758.83;;;-0.55;100.00
81299;BME280;70766;53.170;18.160;2023-11-21T02:40:29;100761.95;;;-0.51;100.00
81299;BME280;70766;53.170;18.160;2023-11-21T02:42:57;100764.51;;;-0.54;100.00
81299;BME280;70766;53.170;18.160;2023-11-21T02:45:27;100767.65;;;-0.52;100.00
81299;BME280;70766;53.170;18.160;2023-11-21T02:47:55;100764.87;;;-0.54;100.00
81299;BME280;70766;53.170;18.160;2023-11-21T02:50:26;100765.64;;;-0.56;100.00
81299;BME280;70766;53.170;18.160;2023-11-21T02:52:55;100769.36;;;-0.57;100.00
81299;BME280;70766;53.170;18.160;2023-11-21T02:55:29;100771.33;;;-0.57;100.00
81299;BME280;70766;53.170;18.160;2023-11-21T02:57:58;100771.98;;;-0.58;100.00
81299;BME280;70766;53.170;18.160;2023-11-21T03:00:28;100775.10;;;-0.58;100.00
81299;BME280;70766;53.170;18.160;2023-11-21T03:02:56;100777.77;;;-0.60;100.00
81299;BME280;70766;53.170;18.160;2023-11-21T03:05:26;100778.43;;;-0.56;100.00
81299;BME280;70766;53.170;18.160;2023-11-21T03:07:57;100778.98;;;-0.56;100.00
81299;BME280;70766;53.170;18.160;2023-11-21T03:10:26;100787.59;;;-0.55;100.00
81299;BME280;70766;53.170;18.160;2023-11-21T03:12:56;100794.92;;;-0.58;100.00
81299;BME280;70766;53.170;18.160;2023-11-21T03:15:25;100799.80;;;-0.64;100.00
81299;BME280;70766;53.170;18.160;2023-11-21T03:17:53;100796.43;;;-0.62;100.00
81299;BME280;70766;53.170;18.160;2023-11-21T03:20:21;100804.30;;;-0.63;100.00
81299;BME280;70766;53.170;18.160;2023-11-21T03:22:49;100805.80;;;-0.64;100.00
81299;BME280;70766;53.170;18.160;2023-11-21T03:25:17;100808.70;;;-0.64;100.00
81299;BME280;70766;53.170;18.160;2023-11-21T03:27:46;100808.98;;;-0.63;100.00
81299;BME280;70766;53.170;18.160;2023-11-21T03:30:14;100808.68;;;-0.67;100.00
81299;BME280;70766;53.170;18.160;2023-11-21T03:32:43;100811.98;;;-0.70;100.00
81299;BME280;70766;53.170;18.160;2023-11-21T03:35:11;100805.96;;;-0.64;100.00
81299;BME280;70766;53.170;18.160;2023-11-21T03:37:39;100815.72;;;-0.65;100.00
81299;BME280;70766;53.170;18.160;2023-11-21T03:40:10;100817.63;;;-0.72;100.00
81299;BME280;70766;53.170;18.160;2023-11-21T03:42:41;100815.82;;;-0.71;100.00
81299;BME280;70766;53.170;18.160;2023-11-21T03:45:10;100816.27;;;-0.72;100.00
81299;BME280;70766;53.170;18.160;2023-11-21T03:47:41;100815.85;;;-0.75;100.00
81299;BME280;70766;53.170;18.160;2023-11-21T03:50:10;100815.95;;;-0.78;100.00
81299;BME280;70766;53.170;18.160;2023-11-21T03:52:38;100806.08;;;-0.80;100.00
81299;BME280;70766;53.170;18.160;2023-11-21T03:55:07;100808.80;;;-0.84;100.00
81299;BME280;70766;53.170;18.160;2023-11-21T03:57:36;100808.20;;;-0.87;100.00
81299;BME280;70766;53.170;18.160;2023-11-21T04:00:06;100808.16;;;-0.84;100.00
81299;BME280;70766;53.170;18.160;2023-11-21T04:02:39;100810.77;;;-0.86;100.00
81299;BME280;70766;53.170;18.160;2023-11-21T04:05:11;100816.03;;;-0.91;100.00
81299;BME280;70766;53.170;18.160;2023-11-21T04:07:40;100819.32;;;-0.91;100.00
81299;BME280;70766;53.170;18.160;2023-11-21T04:10:09;100821.10;;;-0.91;100.00
81299;BME280;70766;53.170;18.160;2023-11-21T04:12:40;100827.58;;;-0.94;100.00
81299;BME280;70766;53.170;18.160;2023-11-21T04:15:10;100826.56;;;-0.94;100.00
81299;BME280;70766;53.170;18.160;2023-11-21T04:17:39;100830.95;;;-1.00;100.00
81299;BME280;70766;53.170;18.160;2023-11-21T04:20:12;100834.28;;;-1.00;100.00
81299;BME280;70766;53.170;18.160;2023-11-21T04:22:44;100836.39;;;-1.00;100.00
81299;BME280;70766;53.170;18.160;2023-11-21T04:25:14;100839.10;;;-0.99;100.00
81299;BME280;70766;53.170;18.160;2023-11-21T04:27:44;100846.04;;;-1.00;100.00
81299;BME280;70766;53.170;18.160;2023-11-21T04:30:14;100848.98;;;-0.94;100.00
81299;BME280;70766;53.170;18.160;2023-11-21T04:32:42;100853.01;;;-1.01;100.00
81299;BME280;70766;53.170;18.160;2023-11-21T04:35:11;100851.34;;;-0.98;100.00
81299;BME280;70766;53.170;18.160;2023-11-21T04:37:40;100850.81;;;-1.00;100.00
81299;BME280;70766;53.170;18.160;2023-11-21T04:40:10;100852.58;;;-1.04;100.00
81299;BME280;70766;53.170;18.160;2023-11-21T04:42:38;100852.39;;;-1.05;100.00
81299;BME280;70766;53.170;18.160;2023-11-21T04:45:07;100860.00;;;-1.06;100.00
81299;BME280;70766;53.170;18.160;2023-11-21T04:47:40;100864.02;;;-1.07;100.00
81299;BME280;70766;53.170;18.160;2023-11-21T04:50:11;100872.09;;;-1.07;100.00
81299;BME280;70766;53.170;18.160;2023-11-21T04:52:40;100870.73;;;-1.05;100.00
81299;BME280;70766;53.170;18.160;2023-11-21T04:55:08;100877.23;;;-1.06;100.00
81299;BME280;70766;53.170;18.160;2023-11-21T04:57:42;100877.43;;;-1.06;100.00
81299;BME280;70766;53.170;18.160;2023-11-21T05:00:10;100886.20;;;-1.04;100.00
81299;BME280;70766;53.170;18.160;2023-11-21T05:02:42;100890.78;;;-1.05;100.00
81299;BME280;70766;53.170;18.160;2023-11-21T05:05:16;100897.69;;;-1.05;100.00
81299;BME280;70766;53.170;18.160;2023-11-21T05:07:44;100898.38;;;-1.03;100.00
81299;BME280;70766;53.170;18.160;2023-11-21T05:10:12;100900.73;;;-1.02;100.00
81299;BME280;70766;53.170;18.160;2023-11-21T05:13:07;100900.73;;;-1.02;100.00
81299;BME280;70766;53.170;18.160;2023-11-21T05:15:38;100900.29;;;-1.01;100.00
81299;BME280;70766;53.170;18.160;2023-11-21T05:18:16;100898.92;;;-1.02;100.00
81299;BME280;70766;53.170;18.160;2023-11-21T05:20:44;100900.70;;;-1.04;100.00
81299;BME280;70766;53.170;18.160;2023-11-21T05:23:18;100901.51;;;-1.03;100.00
81299;BME280;70766;53.170;18.160;2023-11-21T05:25:46;100900.25;;;-1.01;100.00
81299;BME280;70766;53.170;18.160;2023-11-21T05:28:14;100900.99;;;-1.01;100.00
81299;BME280;70766;53.170;18.160;2023-11-21T05:30:42;100904.38;;;-1.00;100.00
81299;BME280;70766;53.170;18.160;2023-11-21T05:33:10;100913.25;;;-1.01;100.00
81299;BME280;70766;53.170;18.160;2023-11-21T05:35:39;100922.20;;;-1.01;100.00
81299;BME280;70766;53.170;18.160;2023-11-21T05:38:07;100923.36;;;-1.02;100.00
81299;BME280;70766;53.170;18.160;2023-11-21T05:40:35;100926.02;;;-0.99;100.00
81299;BME280;70766;53.170;18.160;2023-11-21T05:43:06;100929.73;;;-0.99;100.00
81299;BME280;70766;53.170;18.160;2023-11-21T05:45:34;100935.12;;;-0.98;100.00
81299;BME280;70766;53.170;18.160;2023-11-21T05:48:03;100935.38;;;-1.01;100.00
81299;BME280;70766;53.170;18.160;2023-11-21T05:50:31;100939.30;;;-1.03;100.00
81299;BME280;70766;53.170;18.160;2023-11-21T05:53:00;100940.08;;;-1.02;100.00
81299;BME280;70766;53.170;18.160;2023-11-21T05:55:28;100943.89;;;-1.00;100.00
81299;BME280;70766;53.170;18.160;2023-11-21T05:57:56;100946.33;;;-0.98;100.00
81299;BME280;70766;53.170;18.160;2023-11-21T06:00:25;100951.23;;;-1.00;100.00
81299;BME280;70766;53.170;18.160;2023-11-21T06:02:55;100952.88;;;-1.02;100.00
81299;BME280;70766;53.170;18.160;2023-11-21T06:05:25;100958.38;;;-1.05;100.00
81299;BME280;70766;53.170;18.160;2023-11-21T06:07:55;100964.80;;;-1.07;100.00
81299;BME280;70766;53.170;18.160;2023-11-21T06:10:27;100968.87;;;-1.06;100.00
81299;BME280;70766;53.170;18.160;2023-11-21T06:12:57;100973.30;;;-1.01;100.00
81299;BME280;70766;53.170;18.160;2023-11-21T06:15:31;100980.19;;;-1.01;100.00
81299;BME280;70766;53.170;18.160;2023-11-21T06:17:59;100987.33;;;-1.04;100.00
81299;BME280;70766;53.170;18.160;2023-11-21T06:20:28;100991.73;;;-1.03;100.00
81299;BME280;70766;53.170;18.160;2023-11-21T06:22:56;100992.76;;;-1.04;100.00
81299;BME280;70766;53.170;18.160;2023-11-21T06:25:24;101001.71;;;-1.04;100.00
81299;BME280;70766;53.170;18.160;2023-11-21T06:27:53;101006.89;;;-1.03;100.00
81299;BME280;70766;53.170;18.160;2023-11-21T06:30:22;101014.42;;;-1.01;100.00
81299;BME280;70766;53.170;18.160;2023-11-21T06:32:51;101020.44;;;-1.00;100.00
81299;BME280;70766;53.170;18.160;2023-11-21T06:35:21;101023.96;;;-1.00;100.00
81299;BME280;70766;53.170;18.160;2023-11-21T06:37:49;101026.33;;;-1.01;100.00
81299;BME280;70766;53.170;18.160;2023-11-21T06:40:19;101031.66;;;-1.03;100.00
81299;BME280;70766;53.170;18.160;2023-11-21T06:42:48;101031.52;;;-1.00;100.00
81299;BME280;70766;53.170;18.160;2023-11-21T06:45:18;101031.31;;;-1.02;100.00
81299;BME280;70766;53.170;18.160;2023-11-21T06:47:48;101034.82;;;-1.03;100.00
81299;BME280;70766;53.170;18.160;2023-11-21T06:50:17;101033.73;;;-1.01;100.00
81299;BME280;70766;53.170;18.160;2023-11-21T06:52:46;101035.75;;;-1.02;100.00
81299;BME280;70766;53.170;18.160;2023-11-21T06:55:14;101041.77;;;-0.99;100.00
81299;BME280;70766;53.170;18.160;2023-11-21T06:57:44;101043.19;;;-0.99;100.00
81299;BME280;70766;53.170;18.160;2023-11-21T07:00:15;101049.57;;;-0.98;100.00
81299;BME280;70766;53.170;18.160;2023-11-21T07:02:46;101054.39;;;-0.97;100.00
81299;BME280;70766;53.170;18.160;2023-11-21T07:05:14;101056.45;;;-0.94;100.00
81299;BME280;70766;53.170;18.160;2023-11-21T07:07:43;101056.27;;;-0.93;100.00
81299;BME280;70766;53.170;18.160;2023-11-21T07:10:12;101056.11;;;-0.89;100.00
81299;BME280;70766;53.170;18.160;2023-11-21T07:12:40;101063.50;;;-0.91;100.00
81299;BME280;70766;53.170;18.160;2023-11-21T07:15:09;101064.07;;;-0.88;100.00
81299;BME280;70766;53.170;18.160;2023-11-21T07:17:38;101068.17;;;-0.87;100.00
81299;BME280;70766;53.170;18.160;2023-11-21T07:20:09;101071.08;;;-0.84;100.00
81299;BME280;70766;53.170;18.160;2023-11-21T07:22:39;101068.38;;;-0.80;100.00
81299;BME280;70766;53.170;18.160;2023-11-21T07:25:08;101074.83;;;-0.85;100.00
81299;BME280;70766;53.170;18.160;2023-11-21T07:27:37;101079.17;;;-0.86;100.00
81299;BME280;70766;53.170;18.160;2023-11-21T07:30:06;101079.66;;;-0.86;100.00
81299;BME280;70766;53.170;18.160;2023-11-21T07:32:36;101087.96;;;-0.84;100.00
81299;BME280;70766;53.170;18.160;2023-11-21T07:35:05;101092.02;;;-0.82;100.00
81299;BME280;70766;53.170;18.160;2023-11-21T07:37:36;101093.51;;;-0.82;100.00
81299;BME280;70766;53.170;18.160;2023-11-21T07:40:05;101094.21;;;-0.78;100.00
81299;BME280;70766;53.170;18.160;2023-11-21T07:42:34;101097.91;;;-0.78;100.00
81299;BME280;70766;53.170;18.160;2023-11-21T07:45:04;101099.05;;;-0.72;100.00
81299;BME280;70766;53.170;18.160;2023-11-21T07:47:33;101098.02;;;-0.63;100.00
81299;BME280;70766;53.170;18.160;2023-11-21T07:50:06;101094.05;;;-0.54;100.00
81299;BME280;70766;53.170;18.160;2023-11-21T07:52:37;101092.05;;;-0.43;100.00
81299;BME280;70766;53.170;18.160;2023-11-21T07:55:05;101095.24;;;-0.38;100.00
81299;BME280;70766;53.170;18.160;2023-11-21T07:57:35;101101.13;;;-0.31;100.00
81299;BME280;70766;53.170;18.160;2023-11-21T08:00:05;101101.24;;;-0.27;100.00
81299;BME280;70766;53.170;18.160;2023-11-21T08:02:41;101104.08;;;-0.22;100.00
81299;BME280;70766;53.170;18.160;2023-11-21T08:05:14;101107.58;;;-0.22;100.00
81299;BME280;70766;53.170;18.160;2023-11-21T08:07:55;101111.41;;;-0.18;100.00
81299;BME280;70766;53.170;18.160;2023-11-21T08:10:24;101113.84;;;-0.10;100.00
81299;BME280;70766;53.170;18.160;2023-11-21T08:12:53;101112.46;;;-0.09;100.00
81299;BME280;70766;53.170;18.160;2023-11-21T08:15:21;101118.15;;;-0.17;100.00
81299;BME280;70766;53.170;18.160;2023-11-21T08:17:50;101114.54;;;-0.32;100.00
81299;BME280;70766;53.170;18.160;2023-11-21T08:20:19;101116.35;;;-0.34;100.00
81299;BME280;70766;53.170;18.160;2023-11-21T08:22:48;101113.52;;;-0.32;100.00
81299;BME280;70766;53.170;18.160;2023-11-21T08:25:36;101117.68;;;-0.33;100.00
81299;BME280;70766;53.170;18.160;2023-11-21T08:28:05;101123.02;;;-0.34;100.00
81299;BME280;70766;53.170;18.160;2023-11-21T08:30:33;101120.73;;;-0.29;100.00
81299;BME280;70766;53.170;18.160;2023-11-21T08:33:02;101120.39;;;-0.20;100.00
81299;BME280;70766;53.170;18.160;2023-11-21T08:35:34;101122.14;;;-0.14;100.00
81299;BME280;70766;53.170;18.160;2023-11-21T08:38:04;101124.73;;;-0.15;100.00
81299;BME280;70766;53.170;18.160;2023-11-21T08:40:37;101120.05;;;-0.13;100.00
81299;BME280;70766;53.170;18.160;2023-11-21T08:43:06;101117.91;;;-0.14;100.00
81299;BME280;70766;53.170;18.160;2023-11-21T08:45:35;101115.56;;;-0.01;100.00
81299;BME280;70766;53.170;18.160;2023-11-21T08:48:06;101116.23;;;0.01;100.00
81299;BME280;70766;53.170;18.160;2023-11-21T08:50:35;101120.13;;;0.05;100.00
81299;BME280;70766;53.170;18.160;2023-11-21T08:53:03;101119.58;;;0.07;100.00
81299;BME280;70766;53.170;18.160;2023-11-21T08:55:32;101119.16;;;0.24;100.00
81299;BME280;70766;53.170;18.160;2023-11-21T08:58:05;101124.36;;;0.47;100.00
81299;BME280;70766;53.170;18.160;2023-11-21T09:00:33;101126.33;;;0.66;100.00
81299;BME280;70766;53.170;18.160;2023-11-21T09:03:02;101127.71;;;0.75;100.00
81299;BME280;70766;53.170;18.160;2023-11-21T09:05:31;101132.44;;;0.94;100.00
81299;BME280;70766;53.170;18.160;2023-11-21T09:08:00;101130.80;;;1.02;100.00
81299;BME280;70766;53.170;18.160;2023-11-21T09:10:28;101134.48;;;1.14;100.00
81299;BME280;70766;53.170;18.160;2023-11-21T09:12:56;101138.83;;;1.01;100.00
81299;BME280;70766;53.170;18.160;2023-11-21T09:15:24;101143.08;;;0.92;100.00
81299;BME280;70766;53.170;18.160;2023-11-21T09:17:53;101146.64;;;0.86;100.00
81299;BME280;70766;53.170;18.160;2023-11-21T09:20:21;101142.73;;;0.81;100.00
81299;BME280;70766;53.170;18.160;2023-11-21T09:22:50;101142.78;;;0.79;100.00
81299;BME280;70766;53.170;18.160;2023-11-21T09:25:19;101143.30;;;0.78;100.00
81299;BME280;70766;53.170;18.160;2023-11-21T09:27:48;101148.25;;;0.74;100.00
81299;BME280;70766;53.170;18.160;2023-11-21T09:30:16;101152.69;;;0.75;100.00
81299;BME280;70766;53.170;18.160;2023-11-21T09:32:44;101157.27;;;0.77;100.00
81299;BME280;70766;53.170;18.160;2023-11-21T09:35:14;101165.98;;;0.75;100.00
81299;BME280;70766;53.170;18.160;2023-11-21T09:37:44;101168.00;;;0.77;100.00
81299;BME280;70766;53.170;18.160;2023-11-21T09:40:20;101166.75;;;0.74;100.00
81299;BME280;70766;53.170;18.160;2023-11-21T09:42:54;101172.01;;;0.72;100.00
81299;BME280;70766;53.170;18.160;2023-11-21T09:45:26;101174.29;;;0.76;100.00
81299;BME280;70766;53.170;18.160;2023-11-21T09:47:56;101177.45;;;0.57;100.00
81299;BME280;70766;53.170;18.160;2023-11-21T09:50:24;101179.33;;;0.50;100.00
81299;BME280;70766;53.170;18.160;2023-11-21T09:55:26;101181.84;;;0.53;100.00
81299;BME280;70766;53.170;18.160;2023-11-21T09:57:56;101180.28;;;0.57;100.00
81299;BME280;70766;53.170;18.160;2023-11-21T10:00:25;101181.89;;;0.60;100.00
81299;BME280;70766;53.170;18.160;2023-11-21T10:02:56;101179.96;;;0.62;100.00
81299;BME280;70766;53.170;18.160;2023-11-21T10:05:26;101181.09;;;0.49;100.00
81299;BME280;70766;53.170;18.160;2023-11-21T10:07:56;101181.98;;;0.40;100.00
81299;BME280;70766;53.170;18.160;2023-11-21T10:10:27;101178.59;;;0.40;100.00
81299;BME280;70766;53.170;18.160;2023-11-21T10:12:57;101183.63;;;0.35;100.00
81299;BME280;70766;53.170;18.160;2023-11-21T10:15:30;101178.23;;;0.33;100.00
81299;BME280;70766;53.170;18.160;2023-11-21T10:17:59;101175.88;;;0.30;100.00
81299;BME280;70766;53.170;18.160;2023-11-21T10:20:27;101180.53;;;0.28;100.00
81299;BME280;70766;53.170;18.160;2023-11-21T10:22:55;101183.11;;;0.32;100.00
81299;BME280;70766;53.170;18.160;2023-11-21T10:25:26;101186.55;;;0.34;100.00
81299;BME280;70766;53.170;18.160;2023-11-21T10:28:00;101185.79;;;0.40;100.00
81299;BME280;70766;53.170;18.160;2023-11-21T10:30:37;101193.70;;;0.40;100.00
81299;BME280;70766;53.170;18.160;2023-11-21T10:33:07;101198.95;;;0.28;100.00
81299;BME280;70766;53.170;18.160;2023-11-21T10:35:46;101203.86;;;0.36;100.00
81299;BME280;70766;53.170;18.160;2023-11-21T10:38:22;101207.66;;;0.35;100.00
81299;BME280;70766;53.170;18.160;2023-11-21T10:40:52;101205.66;;;0.26;100.00
81299;BME280;70766;53.170;18.160;2023-11-21T10:43:26;101208.10;;;0.26;100.00
81299;BME280;70766;53.170;18.160;2023-11-21T10:45:57;101209.80;;;0.31;100.00
81299;BME280;70766;53.170;18.160;2023-11-21T10:48:27;101208.84;;;0.39;100.00
81299;BME280;70766;53.170;18.160;2023-11-21T10:50:55;101206.30;;;0.39;100.00
81299;BME280;70766;53.170;18.160;2023-11-21T10:53:28;101212.27;;;0.45;100.00
81299;BME280;70766;53.170;18.160;2023-11-21T10:56:06;101215.06;;;0.41;100.00
81299;BME280;70766;53.170;18.160;2023-11-21T10:58:37;101215.60;;;0.38;100.00
81299;BME280;70766;53.170;18.160;2023-11-21T11:01:06;101216.02;;;0.44;100.00
81299;BME280;70766;53.170;18.160;2023-11-21T11:03:36;101209.45;;;0.56;100.00
81299;BME280;70766;53.170;18.160;2023-11-21T11:06:04;101212.05;;;0.45;100.00
81299;BME280;70766;53.170;18.160;2023-11-21T11:08:35;101210.55;;;0.34;100.00
81299;BME280;70766;53.170;18.160;2023-11-21T11:11:05;101218.45;;;0.43;100.00
81299;BME280;70766;53.170;18.160;2023-11-21T11:13:34;101219.02;;;0.43;100.00
81299;BME280;70766;53.170;18.160;2023-11-21T11:16:03;101216.80;;;0.52;100.00
81299;BME280;70766;53.170;18.160;2023-11-21T11:18:35;101217.20;;;0.59;100.00
81299;BME280;70766;53.170;18.160;2023-11-21T11:29:30;101238.23;;;0.62;100.00
81299;BME280;70766;53.170;18.160;2023-11-21T11:32:23;101243.21;;;0.61;100.00
81299;BME280;70766;53.170;18.160;2023-11-21T11:35:11;101245.04;;;0.71;100.00
81299;BME280;70766;53.170;18.160;2023-11-21T11:37:44;101247.38;;;0.71;100.00
81299;BME280;70766;53.170;18.160;2023-11-21T11:40:13;101254.70;;;0.64;99.98
81299;BME280;70766;53.170;18.160;2023-11-21T11:43:01;101263.43;;;0.65;99.94
81299;BME280;70766;53.170;18.160;2023-11-21T11:45:33;101266.20;;;0.59;100.00
81299;BME280;70766;53.170;18.160;2023-11-21T11:48:05;101276.36;;;0.50;100.00
81299;BME280;70766;53.170;18.160;2023-11-21T11:50:34;101279.28;;;0.54;100.00
81299;BME280;70766;53.170;18.160;2023-11-21T11:53:15;101278.38;;;0.49;100.00
81299;BME280;70766;53.170;18.160;2023-11-21T11:55:43;101282.30;;;0.42;100.00
81299;BME280;70766;53.170;18.160;2023-11-21T11:58:12;101285.80;;;0.42;100.00
81299;BME280;70766;53.170;18.160;2023-11-21T12:00:41;101286.09;;;0.39;100.00
81299;BME280;70766;53.170;18.160;2023-11-21T12:03:13;101285.83;;;0.38;100.00
81299;BME280;70766;53.170;18.160;2023-11-21T12:05:41;101281.66;;;0.41;100.00
81299;BME280;70766;53.170;18.160;2023-11-21T12:08:15;101283.05;;;0.45;100.00
81299;BME280;70766;53.170;18.160;2023-11-21T12:10:44;101282.55;;;0.41;100.00
81299;BME280;70766;53.170;18.160;2023-11-21T12:13:12;101282.48;;;0.29;100.00
81299;BME280;70766;53.170;18.160;2023-11-21T12:15:41;101282.52;;;0.27;100.00
81299;BME280;70766;53.170;18.160;2023-11-21T12:18:10;101286.50;;;0.16;100.00
81299;BME280;70766;53.170;18.160;2023-11-21T12:20:38;101288.66;;;0.10;100.00
81299;BME280;70766;53.170;18.160;2023-11-21T12:23:09;101298.38;;;0.08;100.00
81299;BME280;70766;53.170;18.160;2023-11-21T12:25:38;101301.50;;;0.05;100.00
81299;BME280;70766;53.170;18.160;2023-11-21T12:28:10;101297.04;;;-0.00;100.00
81299;BME280;70766;53.170;18.160;2023-11-21T12:30:40;101294.17;;;0.02;100.00
81299;BME280;70766;53.170;18.160;2023-11-21T12:33:08;101292.98;;;0.06;100.00
81299;BME280;70766;53.170;18.160;2023-11-21T12:35:38;101288.34;;;0.10;100.00
81299;BME280;70766;53.170;18.160;2023-11-21T12:38:06;101291.23;;;0.07;100.00
81299;BME280;70766;53.170;18.160;2023-11-21T12:40:37;101289.56;;;0.14;100.00
81299;BME280;70766;53.170;18.160;2023-11-21T12:43:07;101295.44;;;0.11;100.00
81299;BME280;70766;53.170;18.160;2023-11-21T12:45:38;101296.95;;;0.16;100.00
81299;BME280;70766;53.170;18.160;2023-11-21T12:48:07;101299.27;;;0.13;100.00
81299;BME280;70766;53.170;18.160;2023-11-21T12:50:41;101299.05;;;0.17;100.00
81299;BME280;70766;53.170;18.160;2023-11-21T12:53:11;101307.48;;;0.11;100.00
81299;BME280;70766;53.170;18.160;2023-11-21T12:55:40;101315.91;;;0.11;100.00
81299;BME280;70766;53.170;18.160;2023-11-21T12:58:11;101319.63;;;0.12;100.00